sensor_id;sensor_type;location;lat;lon;timestamp;P1;durP1;ratioP1;P2;durP2;ratioP2
14681;SDS011;7429;52.498;13.480;2023-04-06T00:02:34;12.87;;;10.77;;
14681;SDS011;7429;52.498;13.480;2023-04-06T00:05:37;13.60;;;12.27;;
14681;SDS011;7429;52.498;13.480;2023-04-06T00:08:40;13.33;;;11.53;;
14681;SDS011;7429;52.498;13.480;2023-04-06T00:11:43;12.90;;;11.60;;
14681;SDS011;7429;52.498;13.480;2023-04-06T00:14:50;15.87;;;12.77;;
14681;SDS011;7429;52.498;13.480;2023-04-06T00:17:55;15.60;;;11.93;;
14681;SDS011;7429;52.498;13.480;2023-04-06T00:20:58;13.83;;;12.10;;
14681;SDS011;7429;52.498;13.480;2023-04-06T00:24:01;15.53;;;12.27;;
14681;SDS011;7429;52.498;13.480;2023-04-06T00:27:06;13.97;;;12.47;;
14681;SDS011;7429;52.498;13.480;2023-04-06T00:30:11;14.33;;;12.17;;
14681;SDS011;7429;52.498;13.480;2023-04-06T00:33:14;13.07;;;11.50;;
14681;SDS011;7429;52.498;13.480;2023-04-06T00:36:17;14.53;;;13.00;;
14681;SDS011;7429;52.498;13.480;2023-04-06T00:39:20;15.17;;;12.80;;
14681;SDS011;7429;52.498;13.480;2023-04-06T00:42:24;15.83;;;12.60;;
14681;SDS011;7429;52.498;13.480;2023-04-06T00:45:29;15.50;;;13.47;;
14681;SDS011;7429;52.498;13.480;2023-04-06T00:48:32;12.73;;;11.37;;
14681;SDS011;7429;52.498;13.480;2023-04-06T00:51:35;14.57;;;12.97;;
14681;SDS011;7429;52.498;13.480;2023-04-06T00:54:38;12.93;;;11.63;;
14681;SDS011;7429;52.498;13.480;2023-04-06T00:57:42;13.33;;;11.93;;
14681;SDS011;7429;52.498;13.480;2023-04-06T01:00:48;12.73;;;11.53;;
14681;SDS011;7429;52.498;13.480;2023-04-06T01:03:54;13.83;;;12.20;;
14681;SDS011;7429;52.498;13.480;2023-04-06T01:06:57;16.10;;;12.40;;
14681;SDS011;7429;52.498;13.480;2023-04-06T01:10:08;13.57;;;12.17;;
14681;SDS011;7429;52.498;13.480;2023-04-06T01:13:12;13.80;;;12.50;;
14681;SDS011;7429;52.498;13.480;2023-04-06T01:16:25;16.47;;;13.07;;
14681;SDS011;7429;52.498;13.480;2023-04-06T01:19:54;12.57;;;11.37;;
14681;SDS011;7429;52.498;13.480;2023-04-06T01:23:04;14.20;;;12.70;;
14681;SDS011;7429;52.498;13.480;2023-04-06T01:26:09;14.23;;;12.60;;
14681;SDS011;7429;52.498;13.480;2023-04-06T01:29:12;13.57;;;12.17;;
14681;SDS011;7429;52.498;13.480;2023-04-06T01:32:17;14.87;;;13.20;;
14681;SDS011;7429;52.498;13.480;2023-04-06T01:35:25;14.33;;;12.93;;
14681;SDS011;7429;52.498;13.480;2023-04-06T01:38:45;12.97;;;11.63;;
14681;SDS011;7429;52.498;13.480;2023-04-06T01:41:51;14.87;;;12.13;;
14681;SDS011;7429;52.498;13.480;2023-04-06T01:44:55;14.77;;;11.93;;
14681;SDS011;7429;52.498;13.480;2023-04-06T01:47:58;12.93;;;11.57;;
14681;SDS011;7429;52.498;13.480;2023-04-06T01:51:03;15.87;;;12.13;;
14681;SDS011;7429;52.498;13.480;2023-04-06T01:54:11;13.90;;;11.93;;
14681;SDS011;7429;52.498;13.480;2023-04-06T01:57:26;15.10;;;12.00;;
14681;SDS011;7429;52.498;13.480;2023-04-06T02:00:38;13.47;;;12.07;;
14681;SDS011;7429;52.498;13.480;2023-04-06T02:03:42;15.17;;;12.87;;
14681;SDS011;7429;52.498;13.480;2023-04-06T02:06:49;13.93;;;12.07;;
14681;SDS011;7429;52.498;13.480;2023-04-06T02:09:59;13.20;;;11.90;;
14681;SDS011;7429;52.498;13.480;2023-04-06T02:13:09;13.50;;;12.10;;
14681;SDS011;7429;52.498;13.480;2023-04-06T02:16:14;14.17;;;12.20;;
14681;SDS011;7429;52.498;13.480;2023-04-06T02:19:19;14.03;;;12.57;;
14681;SDS011;7429;52.498;13.480;2023-04-06T02:22:23;13.73;;;12.37;;
14681;SDS011;7429;52.498;13.480;2023-04-06T02:25:28;14.07;;;11.93;;
14681;SDS011;7429;52.498;13.480;2023-04-06T02:28:31;13.90;;;12.50;;
14681;SDS011;7429;52.498;13.480;2023-04-06T02:31:35;13.77;;;12.37;;
14681;SDS011;7429;52.498;13.480;2023-04-06T02:34:40;13.77;;;11.97;;
14681;SDS011;7429;52.498;13.480;2023-04-06T02:37:43;15.40;;;12.17;;
14681;SDS011;7429;52.498;13.480;2023-04-06T02:40:47;13.57;;;12.17;;
14681;SDS011;7429;52.498;13.480;2023-04-06T02:43:59;16.73;;;12.30;;
14681;SDS011;7429;52.498;13.480;2023-04-06T02:47:11;16.33;;;12.83;;
14681;SDS011;7429;52.498;13.480;2023-04-06T02:50:19;19.23;;;13.47;;
14681;SDS011;7429;52.498;13.480;2023-04-06T02:53:30;14.73;;;13.23;;
14681;SDS011;7429;52.498;13.480;2023-04-06T02:56:34;15.97;;;13.63;;
14681;SDS011;7429;52.498;13.480;2023-04-06T02:59:38;14.10;;;12.67;;
14681;SDS011;7429;52.498;13.480;2023-04-06T03:02:48;15.77;;;12.73;;
14681;SDS011;7429;52.498;13.480;2023-04-06T03:05:52;15.77;;;13.60;;
14681;SDS011;7429;52.498;13.480;2023-04-06T03:09:01;15.53;;;12.77;;
14681;SDS011;7429;52.498;13.480;2023-04-06T03:12:08;15.10;;;12.90;;
14681;SDS011;7429;52.498;13.480;2023-04-06T03:15:34;16.33;;;13.50;;
14681;SDS011;7429;52.498;13.480;2023-04-06T03:18:46;13.73;;;12.37;;
14681;SDS011;7429;52.498;13.480;2023-04-06T03:21:49;15.93;;;12.23;;
14681;SDS011;7429;52.498;13.480;2023-04-06T03:24:55;17.10;;;11.77;;
14681;SDS011;7429;52.498;13.480;2023-04-06T03:27:59;17.50;;;13.90;;
14681;SDS011;7429;52.498;13.480;2023-04-06T03:31:04;15.07;;;13.10;;
14681;SDS011;7429;52.498;13.480;2023-04-06T03:34:19;18.00;;;12.93;;
14681;SDS011;7429;52.498;13.480;2023-04-06T03:37:22;15.43;;;13.03;;
14681;SDS011;7429;52.498;13.480;2023-04-06T03:40:29;18.00;;;12.93;;
14681;SDS011;7429;52.498;13.480;2023-04-06T03:43:33;14.20;;;12.23;;
14681;SDS011;7429;52.498;13.480;2023-04-06T03:46:37;17.50;;;12.63;;
14681;SDS011;7429;52.498;13.480;2023-04-06T03:49:42;14.50;;;12.20;;
14681;SDS011;7429;52.498;13.480;2023-04-06T03:52:47;16.37;;;12.83;;
14681;SDS011;7429;52.498;13.480;2023-04-06T03:55:50;18.13;;;13.07;;
14681;SDS011;7429;52.498;13.480;2023-04-06T03:58:56;15.50;;;12.47;;
14681;SDS011;7429;52.498;13.480;2023-04-06T04:01:59;16.43;;;13.03;;
14681;SDS011;7429;52.498;13.480;2023-04-06T04:05:03;15.17;;;13.43;;
14681;SDS011;7429;52.498;13.480;2023-04-06T04:08:08;16.37;;;12.40;;
14681;SDS011;7429;52.498;13.480;2023-04-06T04:11:11;15.73;;;12.50;;
14681;SDS011;7429;52.498;13.480;2023-04-06T04:14:15;13.23;;;11.73;;
14681;SDS011;7429;52.498;13.480;2023-04-06T04:17:19;15.30;;;11.73;;
14681;SDS011;7429;52.498;13.480;2023-04-06T04:20:22;14.77;;;11.03;;
14681;SDS011;7429;52.498;13.480;2023-04-06T04:23:26;20.43;;;11.73;;
14681;SDS011;7429;52.498;13.480;2023-04-06T04:26:29;17.00;;;11.50;;
14681;SDS011;7429;52.498;13.480;2023-04-06T04:29:34;14.53;;;10.87;;
14681;SDS011;7429;52.498;13.480;2023-04-06T04:32:41;13.97;;;11.47;;
14681;SDS011;7429;52.498;13.480;2023-04-06T04:35:44;14.63;;;10.53;;
14681;SDS011;7429;52.498;13.480;2023-04-06T04:38:51;15.63;;;10.23;;
14681;SDS011;7429;52.498;13.480;2023-04-06T04:41:56;14.43;;;10.83;;
14681;SDS011;7429;52.498;13.480;2023-04-06T04:45:00;14.87;;;10.63;;
14681;SDS011;7429;52.498;13.480;2023-04-06T04:48:11;18.30;;;11.40;;
14681;SDS011;7429;52.498;13.480;2023-04-06T04:51:40;13.67;;;11.03;;
14681;SDS011;7429;52.498;13.480;2023-04-06T04:54:46;16.63;;;11.67;;
14681;SDS011;7429;52.498;13.480;2023-04-06T04:57:57;15.30;;;11.20;;
14681;SDS011;7429;52.498;13.480;2023-04-06T05:01:17;12.00;;;10.63;;
14681;SDS011;7429;52.498;13.480;2023-04-06T05:04:20;13.57;;;11.57;;
14681;SDS011;7429;52.498;13.480;2023-04-06T05:07:26;14.07;;;10.47;;
14681;SDS011;7429;52.498;13.480;2023-04-06T05:10:31;16.23;;;10.77;;
14681;SDS011;7429;52.498;13.480;2023-04-06T05:13:36;16.23;;;11.20;;
14681;SDS011;7429;52.498;13.480;2023-04-06T05:16:47;15.07;;;11.83;;
14681;SDS011;7429;52.498;13.480;2023-04-06T05:19:51;15.97;;;12.43;;
14681;SDS011;7429;52.498;13.480;2023-04-06T05:22:57;17.30;;;12.27;;
14681;SDS011;7429;52.498;13.480;2023-04-06T05:26:01;14.23;;;11.10;;
14681;SDS011;7429;52.498;13.480;2023-04-06T05:29:04;13.90;;;10.70;;
14681;SDS011;7429;52.498;13.480;2023-04-06T05:32:12;13.07;;;11.33;;
14681;SDS011;7429;52.498;13.480;2023-04-06T05:35:15;14.20;;;10.87;;
14681;SDS011;7429;52.498;13.480;2023-04-06T05:38:24;19.20;;;11.40;;
14681;SDS011;7429;52.498;13.480;2023-04-06T05:41:29;15.13;;;11.73;;
14681;SDS011;7429;52.498;13.480;2023-04-06T05:44:33;17.10;;;12.10;;
14681;SDS011;7429;52.498;13.480;2023-04-06T05:47:48;14.10;;;11.90;;
14681;SDS011;7429;52.498;13.480;2023-04-06T05:50:58;18.03;;;12.20;;
14681;SDS011;7429;52.498;13.480;2023-04-06T05:54:12;15.20;;;11.00;;
14681;SDS011;7429;52.498;13.480;2023-04-06T05:57:16;16.07;;;13.03;;
14681;SDS011;7429;52.498;13.480;2023-04-06T06:00:20;16.93;;;12.40;;
14681;SDS011;7429;52.498;13.480;2023-04-06T06:03:35;17.03;;;13.07;;
14681;SDS011;7429;52.498;13.480;2023-04-06T06:06:40;24.83;;;11.00;;
14681;SDS011;7429;52.498;13.480;2023-04-06T06:09:49;21.03;;;12.47;;
14681;SDS011;7429;52.498;13.480;2023-04-06T06:12:58;14.20;;;11.43;;
14681;SDS011;7429;52.498;13.480;2023-04-06T06:16:02;15.17;;;10.60;;
14681;SDS011;7429;52.498;13.480;2023-04-06T06:19:11;17.80;;;12.20;;
14681;SDS011;7429;52.498;13.480;2023-04-06T06:22:15;15.77;;;12.20;;
14681;SDS011;7429;52.498;13.480;2023-04-06T06:25:20;13.87;;;11.47;;
14681;SDS011;7429;52.498;13.480;2023-04-06T06:28:24;15.00;;;13.07;;
14681;SDS011;7429;52.498;13.480;2023-04-06T06:31:27;13.50;;;11.93;;
14681;SDS011;7429;52.498;13.480;2023-04-06T06:34:32;17.33;;;11.87;;
14681;SDS011;7429;52.498;13.480;2023-04-06T06:37:38;16.20;;;10.80;;
14681;SDS011;7429;52.498;13.480;2023-04-06T06:40:45;14.40;;;11.00;;
14681;SDS011;7429;52.498;13.480;2023-04-06T06:43:50;16.87;;;11.30;;
14681;SDS011;7429;52.498;13.480;2023-04-06T06:46:53;15.17;;;10.80;;
14681;SDS011;7429;52.498;13.480;2023-04-06T06:49:58;16.97;;;9.87;;
14681;SDS011;7429;52.498;13.480;2023-04-06T06:53:01;11.87;;;10.03;;
14681;SDS011;7429;52.498;13.480;2023-04-06T06:56:04;16.43;;;10.70;;
14681;SDS011;7429;52.498;13.480;2023-04-06T06:59:09;15.93;;;10.93;;
14681;SDS011;7429;52.498;13.480;2023-04-06T07:02:12;15.20;;;10.23;;
14681;SDS011;7429;52.498;13.480;2023-04-06T07:05:17;12.13;;;9.13;;
14681;SDS011;7429;52.498;13.480;2023-04-06T07:08:30;10.97;;;8.93;;
14681;SDS011;7429;52.498;13.480;2023-04-06T07:11:33;16.47;;;9.57;;
14681;SDS011;7429;52.498;13.480;2023-04-06T07:14:36;14.47;;;9.53;;
14681;SDS011;7429;52.498;13.480;2023-04-06T07:17:39;16.63;;;8.67;;
14681;SDS011;7429;52.498;13.480;2023-04-06T07:20:44;15.33;;;8.50;;
14681;SDS011;7429;52.498;13.480;2023-04-06T07:23:48;10.27;;;8.03;;
14681;SDS011;7429;52.498;13.480;2023-04-06T07:26:52;13.20;;;8.30;;
14681;SDS011;7429;52.498;13.480;2023-04-06T07:29:55;12.93;;;9.23;;
14681;SDS011;7429;52.498;13.480;2023-04-06T07:32:59;12.80;;;10.27;;
14681;SDS011;7429;52.498;13.480;2023-04-06T07:36:05;20.80;;;12.40;;
14681;SDS011;7429;52.498;13.480;2023-04-06T07:39:09;20.23;;;14.80;;
14681;SDS011;7429;52.498;13.480;2023-04-06T07:42:12;29.00;;;17.93;;
14681;SDS011;7429;52.498;13.480;2023-04-06T07:45:15;34.37;;;19.00;;
14681;SDS011;7429;52.498;13.480;2023-04-06T07:48:19;15.70;;;11.43;;
14681;SDS011;7429;52.498;13.480;2023-04-06T07:56:02;12.10;;;9.83;;
14681;SDS011;7429;52.498;13.480;2023-04-06T07:59:12;12.93;;;8.67;;
14681;SDS011;7429;52.498;13.480;2023-04-06T08:02:50;11.67;;;7.53;;
14681;SDS011;7429;52.498;13.480;2023-04-06T08:05:53;7.07;;;6.37;;
14681;SDS011;7429;52.498;13.480;2023-04-06T08:08:58;8.43;;;6.57;;
14681;SDS011;7429;52.498;13.480;2023-04-06T08:12:01;10.50;;;6.63;;
14681;SDS011;7429;52.498;13.480;2023-04-06T08:15:05;8.60;;;6.33;;
14681;SDS011;7429;52.498;13.480;2023-04-06T08:18:08;7.00;;;6.30;;
14681;SDS011;7429;52.498;13.480;2023-04-06T08:21:12;6.80;;;5.80;;
14681;SDS011;7429;52.498;13.480;2023-04-06T08:24:16;5.90;;;5.13;;
14681;SDS011;7429;52.498;13.480;2023-04-06T08:27:19;5.97;;;5.17;;
14681;SDS011;7429;52.498;13.480;2023-04-06T08:30:22;6.30;;;4.80;;
14681;SDS011;7429;52.498;13.480;2023-04-06T08:33:25;6.47;;;4.73;;
14681;SDS011;7429;52.498;13.480;2023-04-06T08:36:28;6.67;;;4.80;;
14681;SDS011;7429;52.498;13.480;2023-04-06T08:39:33;7.10;;;5.00;;
14681;SDS011;7429;52.498;13.480;2023-04-06T08:42:39;5.53;;;5.03;;
14681;SDS011;7429;52.498;13.480;2023-04-06T08:45:46;5.97;;;5.37;;
14681;SDS011;7429;52.498;13.480;2023-04-06T08:48:50;5.37;;;4.47;;
14681;SDS011;7429;52.498;13.480;2023-04-06T08:51:54;5.07;;;4.23;;
14681;SDS011;7429;52.498;13.480;2023-04-06T08:55:00;6.53;;;5.27;;
14681;SDS011;7429;52.498;13.480;2023-04-06T08:58:03;8.33;;;5.03;;
14681;SDS011;7429;52.498;13.480;2023-04-06T09:01:11;5.27;;;4.77;;
14681;SDS011;7429;52.498;13.480;2023-04-06T09:04:16;5.60;;;5.17;;
14681;SDS011;7429;52.498;13.480;2023-04-06T09:07:21;9.13;;;5.00;;
14681;SDS011;7429;52.498;13.480;2023-04-06T09:10:26;4.53;;;4.13;;
14681;SDS011;7429;52.498;13.480;2023-04-06T09:13:31;6.00;;;4.30;;
14681;SDS011;7429;52.498;13.480;2023-04-06T09:16:38;7.10;;;5.00;;
14681;SDS011;7429;52.498;13.480;2023-04-06T09:19:47;6.33;;;4.40;;
14681;SDS011;7429;52.498;13.480;2023-04-06T09:22:51;6.53;;;4.43;;
14681;SDS011;7429;52.498;13.480;2023-04-06T09:26:05;6.23;;;4.03;;
14681;SDS011;7429;52.498;13.480;2023-04-06T09:29:11;6.23;;;4.20;;
14681;SDS011;7429;52.498;13.480;2023-04-06T09:32:25;5.10;;;4.60;;
14681;SDS011;7429;52.498;13.480;2023-04-06T09:35:29;5.50;;;4.30;;
14681;SDS011;7429;52.498;13.480;2023-04-06T09:38:34;4.87;;;4.10;;
14681;SDS011;7429;52.498;13.480;2023-04-06T09:41:40;9.60;;;4.37;;
14681;SDS011;7429;52.498;13.480;2023-04-06T09:44:46;6.73;;;3.80;;
14681;SDS011;7429;52.498;13.480;2023-04-06T09:47:49;12.40;;;4.50;;
14681;SDS011;7429;52.498;13.480;2023-04-06T09:50:57;4.57;;;4.17;;
14681;SDS011;7429;52.498;13.480;2023-04-06T09:54:07;5.27;;;4.33;;
14681;SDS011;7429;52.498;13.480;2023-04-06T09:57:15;5.03;;;4.63;;
14681;SDS011;7429;52.498;13.480;2023-04-06T10:00:27;5.67;;;4.63;;
14681;SDS011;7429;52.498;13.480;2023-04-06T10:03:36;4.30;;;3.83;;
14681;SDS011;7429;52.498;13.480;2023-04-06T10:06:49;6.07;;;4.40;;
14681;SDS011;7429;52.498;13.480;2023-04-06T10:09:54;5.20;;;4.70;;
14681;SDS011;7429;52.498;13.480;2023-04-06T10:12:59;4.03;;;3.60;;
14681;SDS011;7429;52.498;13.480;2023-04-06T10:16:03;3.93;;;3.50;;
14681;SDS011;7429;52.498;13.480;2023-04-06T10:19:10;8.40;;;3.80;;
14681;SDS011;7429;52.498;13.480;2023-04-06T10:22:20;6.67;;;3.97;;
14681;SDS011;7429;52.498;13.480;2023-04-06T10:25:27;5.50;;;3.57;;
14681;SDS011;7429;52.498;13.480;2023-04-06T10:28:32;4.80;;;4.03;;
14681;SDS011;7429;52.498;13.480;2023-04-06T10:31:39;4.37;;;3.70;;
14681;SDS011;7429;52.498;13.480;2023-04-06T10:34:45;6.40;;;3.70;;
14681;SDS011;7429;52.498;13.480;2023-04-06T10:37:52;4.20;;;3.40;;
14681;SDS011;7429;52.498;13.480;2023-04-06T10:41:03;3.73;;;2.90;;
14681;SDS011;7429;52.498;13.480;2023-04-06T10:44:16;3.77;;;3.43;;
14681;SDS011;7429;52.498;13.480;2023-04-06T10:47:22;6.83;;;3.40;;
14681;SDS011;7429;52.498;13.480;2023-04-06T10:50:26;3.63;;;3.33;;
14681;SDS011;7429;52.498;13.480;2023-04-06T10:53:32;4.30;;;3.10;;
14681;SDS011;7429;52.498;13.480;2023-04-06T10:56:36;4.60;;;3.90;;
14681;SDS011;7429;52.498;13.480;2023-04-06T10:59:43;4.43;;;3.60;;
14681;SDS011;7429;52.498;13.480;2023-04-06T11:02:46;4.77;;;4.20;;
14681;SDS011;7429;52.498;13.480;2023-04-06T11:05:50;3.17;;;2.97;;
14681;SDS011;7429;52.498;13.480;2023-04-06T11:08:54;4.67;;;3.60;;
14681;SDS011;7429;52.498;13.480;2023-04-06T11:11:58;4.07;;;3.53;;
14681;SDS011;7429;52.498;13.480;2023-04-06T11:15:04;3.60;;;2.90;;
14681;SDS011;7429;52.498;13.480;2023-04-06T11:18:08;3.67;;;3.37;;
14681;SDS011;7429;52.498;13.480;2023-04-06T11:21:13;5.40;;;3.57;;
14681;SDS011;7429;52.498;13.480;2023-04-06T11:24:16;3.10;;;2.90;;
14681;SDS011;7429;52.498;13.480;2023-04-06T11:27:21;3.77;;;3.47;;
14681;SDS011;7429;52.498;13.480;2023-04-06T11:30:26;5.03;;;3.57;;
14681;SDS011;7429;52.498;13.480;2023-04-06T11:33:29;3.60;;;3.30;;
14681;SDS011;7429;52.498;13.480;2023-04-06T11:36:42;3.83;;;3.30;;
14681;SDS011;7429;52.498;13.480;2023-04-06T11:39:47;3.83;;;3.37;;
14681;SDS011;7429;52.498;13.480;2023-04-06T11:42:52;3.87;;;3.57;;
14681;SDS011;7429;52.498;13.480;2023-04-06T11:46:01;4.37;;;3.97;;
14681;SDS011;7429;52.498;13.480;2023-04-06T11:49:06;5.83;;;3.43;;
14681;SDS011;7429;52.498;13.480;2023-04-06T11:52:19;4.43;;;3.70;;
14681;SDS011;7429;52.498;13.480;2023-04-06T11:55:25;4.07;;;3.47;;
14681;SDS011;7429;52.498;13.480;2023-04-06T11:58:29;4.83;;;3.63;;
14681;SDS011;7429;52.498;13.480;2023-04-06T12:01:33;4.83;;;3.53;;
14681;SDS011;7429;52.498;13.480;2023-04-06T12:04:39;5.73;;;4.07;;
14681;SDS011;7429;52.498;13.480;2023-04-06T12:07:42;3.97;;;3.60;;
14681;SDS011;7429;52.498;13.480;2023-04-06T12:10:45;5.43;;;3.17;;
14681;SDS011;7429;52.498;13.480;2023-04-06T12:13:48;4.70;;;3.70;;
14681;SDS011;7429;52.498;13.480;2023-04-06T12:16:53;3.47;;;3.17;;
14681;SDS011;7429;52.498;13.480;2023-04-06T12:19:56;3.43;;;3.13;;
14681;SDS011;7429;52.498;13.480;2023-04-06T12:23:06;4.53;;;3.70;;
14681;SDS011;7429;52.498;13.480;2023-04-06T12:26:09;3.90;;;3.60;;
14681;SDS011;7429;52.498;13.480;2023-04-06T12:29:13;3.43;;;3.03;;
14681;SDS011;7429;52.498;13.480;2023-04-06T12:32:18;4.27;;;3.67;;
14681;SDS011;7429;52.498;13.480;2023-04-06T12:35:21;3.73;;;3.43;;
14681;SDS011;7429;52.498;13.480;2023-04-06T12:38:24;5.67;;;3.37;;
14681;SDS011;7429;52.498;13.480;2023-04-06T12:41:27;6.63;;;4.00;;
14681;SDS011;7429;52.498;13.480;2023-04-06T12:44:33;5.90;;;3.47;;
14681;SDS011;7429;52.498;13.480;2023-04-06T12:47:38;3.90;;;3.60;;
14681;SDS011;7429;52.498;13.480;2023-04-06T12:50:41;4.20;;;3.40;;
14681;SDS011;7429;52.498;13.480;2023-04-06T12:53:45;5.57;;;3.80;;
14681;SDS011;7429;52.498;13.480;2023-04-06T12:56:48;4.53;;;4.13;;
14681;SDS011;7429;52.498;13.480;2023-04-06T12:59:51;5.33;;;4.00;;
14681;SDS011;7429;52.498;13.480;2023-04-06T13:02:56;4.00;;;3.60;;
14681;SDS011;7429;52.498;13.480;2023-04-06T13:05:59;5.13;;;3.73;;
14681;SDS011;7429;52.498;13.480;2023-04-06T13:09:03;3.63;;;3.33;;
14681;SDS011;7429;52.498;13.480;2023-04-06T13:12:07;4.77;;;3.83;;
14681;SDS011;7429;52.498;13.480;2023-04-06T13:15:10;3.73;;;3.43;;
14681;SDS011;7429;52.498;13.480;2023-04-06T13:18:15;5.27;;;3.73;;
14681;SDS011;7429;52.498;13.480;2023-04-06T13:21:19;4.60;;;4.10;;
14681;SDS011;7429;52.498;13.480;2023-04-06T13:24:22;3.80;;;3.40;;
14681;SDS011;7429;52.498;13.480;2023-04-06T13:27:26;4.18;;;3.15;;
14681;SDS011;7429;52.498;13.480;2023-04-06T13:30:29;4.10;;;3.37;;
14681;SDS011;7429;52.498;13.480;2023-04-06T13:33:34;4.28;;;3.80;;
14681;SDS011;7429;52.498;13.480;2023-04-06T13:36:37;4.60;;;3.80;;
14681;SDS011;7429;52.498;13.480;2023-04-06T13:39:42;7.37;;;4.10;;
14681;SDS011;7429;52.498;13.480;2023-04-06T13:42:45;5.03;;;4.00;;
14681;SDS011;7429;52.498;13.480;2023-04-06T13:45:49;4.90;;;3.47;;
14681;SDS011;7429;52.498;13.480;2023-04-06T13:48:54;4.47;;;3.70;;
14681;SDS011;7429;52.498;13.480;2023-04-06T13:51:57;3.80;;;3.53;;
14681;SDS011;7429;52.498;13.480;2023-04-06T13:55:01;4.27;;;3.70;;
14681;SDS011;7429;52.498;13.480;2023-04-06T13:58:04;4.63;;;3.27;;
14681;SDS011;7429;52.498;13.480;2023-04-06T14:01:07;3.70;;;3.40;;
14681;SDS011;7429;52.498;13.480;2023-04-06T14:04:13;4.37;;;3.67;;
14681;SDS011;7429;52.498;13.480;2023-04-06T14:07:16;3.97;;;3.57;;
14681;SDS011;7429;52.498;13.480;2023-04-06T14:10:19;4.07;;;3.77;;
14681;SDS011;7429;52.498;13.480;2023-04-06T14:13:25;6.87;;;3.60;;
14681;SDS011;7429;52.498;13.480;2023-04-06T14:16:28;4.87;;;3.87;;
14681;SDS011;7429;52.498;13.480;2023-04-06T14:19:34;4.10;;;3.60;;
14681;SDS011;7429;52.498;13.480;2023-04-06T14:22:37;4.53;;;3.63;;
14681;SDS011;7429;52.498;13.480;2023-04-06T14:25:40;4.20;;;3.80;;
14681;SDS011;7429;52.498;13.480;2023-04-06T14:28:44;4.33;;;3.90;;
14681;SDS011;7429;52.498;13.480;2023-04-06T14:31:47;5.07;;;3.93;;
14681;SDS011;7429;52.498;13.480;2023-04-06T14:34:52;5.07;;;4.13;;
14681;SDS011;7429;52.498;13.480;2023-04-06T14:37:55;3.37;;;3.17;;
14681;SDS011;7429;52.498;13.480;2023-04-06T14:40:59;6.60;;;3.93;;
14681;SDS011;7429;52.498;13.480;2023-04-06T14:44:02;3.67;;;3.37;;
14681;SDS011;7429;52.498;13.480;2023-04-06T14:47:06;4.23;;;3.93;;
14681;SDS011;7429;52.498;13.480;2023-04-06T14:50:11;6.47;;;3.83;;
14681;SDS011;7429;52.498;13.480;2023-04-06T14:53:14;4.17;;;3.80;;
14681;SDS011;7429;52.498;13.480;2023-04-06T14:56:21;4.40;;;4.00;;
14681;SDS011;7429;52.498;13.480;2023-04-06T14:59:24;3.57;;;3.27;;
14681;SDS011;7429;52.498;13.480;2023-04-06T15:02:32;3.83;;;3.37;;
14681;SDS011;7429;52.498;13.480;2023-04-06T15:05:37;4.37;;;3.97;;
14681;SDS011;7429;52.498;13.480;2023-04-06T15:08:40;4.07;;;3.60;;
14681;SDS011;7429;52.498;13.480;2023-04-06T15:11:44;5.47;;;4.17;;
14681;SDS011;7429;52.498;13.480;2023-04-06T15:14:47;4.10;;;3.70;;
14681;SDS011;7429;52.498;13.480;2023-04-06T15:17:50;4.23;;;3.83;;
14681;SDS011;7429;52.498;13.480;2023-04-06T15:20:54;5.53;;;3.33;;
14681;SDS011;7429;52.498;13.480;2023-04-06T15:23:57;4.00;;;3.60;;
14681;SDS011;7429;52.498;13.480;2023-04-06T15:27:00;5.93;;;3.90;;
14681;SDS011;7429;52.498;13.480;2023-04-06T15:30:06;4.53;;;3.80;;
14681;SDS011;7429;52.498;13.480;2023-04-06T15:33:10;5.63;;;4.10;;
14681;SDS011;7429;52.498;13.480;2023-04-06T15:36:24;4.70;;;4.30;;
14681;SDS011;7429;52.498;13.480;2023-04-06T15:39:31;5.33;;;3.90;;
14681;SDS011;7429;52.498;13.480;2023-04-06T15:42:34;4.40;;;4.00;;
14681;SDS011;7429;52.498;13.480;2023-04-06T15:45:37;3.87;;;3.40;;
14681;SDS011;7429;52.498;13.480;2023-04-06T15:48:42;4.17;;;3.83;;
14681;SDS011;7429;52.498;13.480;2023-04-06T15:51:47;4.17;;;3.90;;
14681;SDS011;7429;52.498;13.480;2023-04-06T15:54:50;3.67;;;3.43;;
14681;SDS011;7429;52.498;13.480;2023-04-06T15:57:54;5.93;;;4.47;;
14681;SDS011;7429;52.498;13.480;2023-04-06T16:00:57;4.17;;;3.80;;
14681;SDS011;7429;52.498;13.480;2023-04-06T16:04:00;4.53;;;4.13;;
14681;SDS011;7429;52.498;13.480;2023-04-06T16:07:05;4.20;;;3.87;;
14681;SDS011;7429;52.498;13.480;2023-04-06T16:10:08;5.73;;;4.47;;
14681;SDS011;7429;52.498;13.480;2023-04-06T16:13:12;3.80;;;3.50;;
14681;SDS011;7429;52.498;13.480;2023-04-06T16:16:15;5.87;;;4.63;;
14681;SDS011;7429;52.498;13.480;2023-04-06T16:19:18;4.57;;;4.13;;
14681;SDS011;7429;52.498;13.480;2023-04-06T16:22:23;3.87;;;3.57;;
14681;SDS011;7429;52.498;13.480;2023-04-06T16:25:26;5.60;;;4.73;;
14681;SDS011;7429;52.498;13.480;2023-04-06T16:28:29;4.90;;;3.80;;
14681;SDS011;7429;52.498;13.480;2023-04-06T16:31:33;4.03;;;3.57;;
14681;SDS011;7429;52.498;13.480;2023-04-06T16:34:36;5.10;;;3.47;;
14681;SDS011;7429;52.498;13.480;2023-04-06T16:37:41;4.73;;;4.23;;
14681;SDS011;7429;52.498;13.480;2023-04-06T16:40:46;4.47;;;4.00;;
14681;SDS011;7429;52.498;13.480;2023-04-06T16:43:50;4.60;;;4.20;;
14681;SDS011;7429;52.498;13.480;2023-04-06T16:46:53;4.77;;;3.77;;
14681;SDS011;7429;52.498;13.480;2023-04-06T16:49:57;4.77;;;3.93;;
14681;SDS011;7429;52.498;13.480;2023-04-06T16:53:07;4.80;;;4.30;;
14681;SDS011;7429;52.498;13.480;2023-04-06T16:56:11;3.80;;;3.50;;
14681;SDS011;7429;52.498;13.480;2023-04-06T16:59:14;4.23;;;3.60;;
14681;SDS011;7429;52.498;13.480;2023-04-06T17:02:17;4.97;;;4.07;;
14681;SDS011;7429;52.498;13.480;2023-04-06T17:05:21;5.63;;;4.27;;
14681;SDS011;7429;52.498;13.480;2023-04-06T17:08:28;5.60;;;4.03;;
14681;SDS011;7429;52.498;13.480;2023-04-06T17:11:31;5.27;;;4.57;;
14681;SDS011;7429;52.498;13.480;2023-04-06T17:14:47;4.60;;;4.20;;
14681;SDS011;7429;52.498;13.480;2023-04-06T17:17:50;4.27;;;3.73;;
14681;SDS011;7429;52.498;13.480;2023-04-06T17:20:54;4.43;;;3.60;;
14681;SDS011;7429;52.498;13.480;2023-04-06T17:23:59;4.80;;;4.03;;
14681;SDS011;7429;52.498;13.480;2023-04-06T17:27:02;5.93;;;4.03;;
14681;SDS011;7429;52.498;13.480;2023-04-06T17:30:06;4.70;;;4.10;;
14681;SDS011;7429;52.498;13.480;2023-04-06T17:33:15;3.90;;;3.60;;
14681;SDS011;7429;52.498;13.480;2023-04-06T17:36:18;3.93;;;3.63;;
14681;SDS011;7429;52.498;13.480;2023-04-06T17:39:23;6.40;;;4.57;;
14681;SDS011;7429;52.498;13.480;2023-04-06T17:42:27;4.80;;;4.30;;
14681;SDS011;7429;52.498;13.480;2023-04-06T17:45:30;6.93;;;4.23;;
14681;SDS011;7429;52.498;13.480;2023-04-06T17:48:33;5.10;;;4.57;;
14681;SDS011;7429;52.498;13.480;2023-04-06T17:51:36;5.43;;;4.90;;
14681;SDS011;7429;52.498;13.480;2023-04-06T17:54:40;8.47;;;4.93;;
14681;SDS011;7429;52.498;13.480;2023-04-06T17:57:43;5.90;;;4.87;;
14681;SDS011;7429;52.498;13.480;2023-04-06T18:00:47;7.17;;;5.13;;
14681;SDS011;7429;52.498;13.480;2023-04-06T18:03:50;7.00;;;5.27;;
14681;SDS011;7429;52.498;13.480;2023-04-06T18:06:53;8.40;;;4.83;;
14681;SDS011;7429;52.498;13.480;2023-04-06T18:09:58;7.13;;;5.30;;
14681;SDS011;7429;52.498;13.480;2023-04-06T18:13:02;6.23;;;5.13;;
14681;SDS011;7429;52.498;13.480;2023-04-06T18:16:05;6.60;;;5.60;;
14681;SDS011;7429;52.498;13.480;2023-04-06T18:19:08;6.77;;;5.70;;
14681;SDS011;7429;52.498;13.480;2023-04-06T18:22:11;6.00;;;5.37;;
14681;SDS011;7429;52.498;13.480;2023-04-06T18:25:16;9.40;;;5.57;;
14681;SDS011;7429;52.498;13.480;2023-04-06T18:28:19;8.07;;;5.57;;